Flight Briefing for CPX798

Departure Arrival
Arturo Merino Benitez International Airport (SCEL)
Click to view FAA NOTAMS
Miami International Airport (KMIA)
Click to view FAA NOTAMS
Departure Time Arrival Time
N/A N/A
Aircraft Distance
MD-11SF 3625nm
Departure METAR Arrival METAR
SCEL 192300Z 20016KT CAVOK 26/13 Q1013 NOSIG KMIA 192253Z 10011KT 10SM SCT027 26/21 A3013 RMK AO2 SLP202 T02560206
Suggested Route
IKBIX Y183 PEAKY DVALL CURSO5


View recent IFR Routes data
Notes



Charts and Procedures

Charts for SCEL
No chart available
Charts for KMIA
No chart available

Ventusky Weather




{"cat":null,"equip":null,"transponder":null,"pbn":"PBN\/","maxpax":null,"oew":"0.0","mzfw":"0.0","mtow":"0.0","mlw":"0.0","maxfuel":"0.0"} DEVELOPMENTAL TEST USE ONLY